Valparaiso, IN

4:39 AM CDT on June 30, 2015 (GMT -0500)
Shamrock | | Change Station
CLOSE
Current Station
Personal Weather Station
Location: Valparaiso, IN
Elevation: 715 ft
Nearby Weather Stations
Active Advisory: Flood Advisory

Elev 715 ft 41.47 °N, 87.10 °W | Updated 41 minutes ago

Overcast
Overcast
62.4 °F
Feels Like 62.4 °F
N
0.0
Wind Variable Wind from South

Today
High -- | Low -- °F
--% Chance of Precip.
Yesterday
High -- | Low -- °F
Precip. -- in
5:17 AM 8:26 PM
Waxing Gibbous, 96% visible
Pressure 29.78 in
Visibility 0.8 miles
Clouds
Dew Point 62 °F
Humidity 99%
Rainfall 0.00 in
Snow Depth Not available.
UV Not available.
Pollen .50 out of 12
Air Quality Not available.
Flu Activity No Activity
METAR KVPZ 300856Z AUTO 21005KT 3/4SM BR VV002 18/17 A2978 RMK AO2 SLP082 T01780172 56008 TSNO

More Conditions Fewer Conditions

Pressure 29.78 in
Visibility 0.8 miles
Clouds
Dew Point 62 °F
Humidity 99%
Rainfall 0.00 in
Snow Depth Not available.
UV Not available.
Pollen .50 out of 12
Air Quality Not available.
Flu Activity No Activity
METAR KVPZ 300856Z AUTO 21005KT 3/4SM BR VV002 18/17 A2978 RMK AO2 SLP082 T01780172 56008 TSNO

More Conditions Fewer Conditions

10-Day Weather Forecast

×

Almanac

Astronomy

Jun. 30, 2015 Rise Set
Actual Time
Civil Twilight
Nautical Twilight
Astronomical Twilight
Moon
Length of Visible Light
Length of Day
Tomorrow will be .
, % of the Moon is Illuminated

Today's Extremes

State Highs State Lows

Community

WunderPhotos

Upload Photos

1,833,983 photos uploaded!

WunderBlogs® & News

Nearby

Air Quality

  Air Quality AQ Index Pollutant
Not available.

Snow Depth

Station Depth Elevation

Earthquake Activity

City Distance Mag. Time & Date
Minimum magnitude displayed is 2.5.

Coastal Water Temperatures

Place Temperature

Stations

Nearby Weather Stations

Station Location Temp. Windchill Dew Point Humidity Wind Precip. Elev Updated Type
                   
Flood Advisory
Statement as of 8:22 PM CDT on June 29, 2015

The Flood Advisory continues for
the Kankakee River near Kouts
* until late Thursday night.
* At 800 PM Monday the stage was 10.3 feet.
* Action stage is 10.5 feet.
* Flood stage is 11.0 feet.
* Forecast... the river will rise to near 10.7 feet by Wednesday
afternoon.
* Impact... at 11.0 feet... agricultural areas begin to flood. Some
backwaters begin to fill drainage ditches.


Lat... Lon 4128 8700 4132 8713 4127 8727 4118 8723
      4122 8711 4122 8706





822 PM CDT Mon Jun 29 2015

The Flood Advisory continues for
the Kankakee River at Dunns Bridge
* until Friday morning.
* At 800 PM Monday the stage was 9.4 feet.
* Action stage is 9.5 feet.
* Flood stage is 10.0 feet.
* Forecast... the river will rise to near 9.6 feet by Tuesday evening.
* Impact... at 10.0 feet... flooding begins of low lying agricultural
areas near the river.


Lat... Lon 4126 8697 4128 8700 4122 8706 4118 8697
      4121 8687 4129 8689